createdAt,value
2023-03-22T00:01:23.005Z,42.33
2023-03-22T00:03:53.128Z,37.03
2023-03-22T00:06:23.892Z,39.50
2023-03-22T00:08:54.413Z,37.77
2023-03-22T00:11:26.073Z,40.90
2023-03-22T00:13:55.631Z,38.90
2023-03-22T00:16:24.960Z,40.93
2023-03-22T00:18:54.553Z,40.50
2023-03-22T00:21:25.462Z,39.33
2023-03-22T00:23:54.796Z,36.30
2023-03-22T00:26:24.090Z,38.57
2023-03-22T00:28:53.517Z,40.30
2023-03-22T00:31:23.007Z,39.93
2023-03-22T00:33:52.572Z,39.43
2023-03-22T00:36:22.042Z,38.43
2023-03-22T00:38:55.441Z,41.80
2023-03-22T00:41:25.674Z,41.73
2023-03-22T00:43:55.004Z,44.90
2023-03-22T00:46:26.159Z,43.93
2023-03-22T00:48:55.900Z,42.00
2023-03-22T00:51:25.117Z,41.03
2023-03-22T00:53:56.404Z,44.17
2023-03-22T00:56:25.819Z,48.60
2023-03-22T00:59:03.178Z,39.17
2023-03-22T01:01:32.815Z,40.17
2023-03-22T01:04:03.389Z,48.60
2023-03-22T01:06:35.245Z,45.80
2023-03-22T01:09:06.321Z,45.07
2023-03-22T01:11:35.630Z,43.27
2023-03-22T01:14:04.876Z,44.53
2023-03-22T01:16:34.081Z,47.97
2023-03-22T01:19:03.911Z,45.37
2023-03-22T01:21:33.682Z,41.37
2023-03-22T01:24:05.164Z,47.50
2023-03-22T01:26:34.627Z,53.57
2023-03-22T01:29:04.393Z,48.20
2023-03-22T01:31:33.802Z,49.50
2023-03-22T01:34:03.804Z,45.87
2023-03-22T01:36:33.268Z,50.60
2023-03-22T01:39:03.109Z,45.40
2023-03-22T01:41:35.359Z,46.83
2023-03-22T01:44:16.101Z,45.77
2023-03-22T01:46:47.095Z,50.93
2023-03-22T01:49:21.125Z,47.90
2023-03-22T01:51:52.634Z,48.13
2023-03-22T01:54:51.999Z,47.53
2023-03-22T01:57:39.150Z,42.57
2023-03-22T02:00:16.071Z,44.87
2023-03-22T02:03:08.678Z,46.53
2023-03-22T02:05:43.386Z,47.87
2023-03-22T02:08:15.197Z,46.30
2023-03-22T02:11:20.151Z,45.23
2023-03-22T02:14:10.527Z,43.53
2023-03-22T02:17:29.018Z,47.90
2023-03-22T02:20:58.292Z,44.73
2023-03-22T02:24:12.116Z,49.47
2023-03-22T02:27:09.398Z,47.97
2023-03-22T02:29:46.178Z,46.53
2023-03-22T02:32:47.590Z,43.83
2023-03-22T02:35:48.340Z,46.73
2023-03-22T02:38:45.996Z,53.97
2023-03-22T02:41:23.466Z,57.20
2023-03-22T02:44:06.200Z,58.00
2023-03-22T02:46:42.133Z,65.77
2023-03-22T02:49:20.295Z,100.87
2023-03-22T02:51:54.602Z,111.23
2023-03-22T02:54:29.192Z,79.73
2023-03-22T02:57:04.575Z,101.00
2023-03-22T02:59:39.892Z,108.77
2023-03-22T03:02:13.000Z,68.33
2023-03-22T03:04:46.462Z,70.93
2023-03-22T03:07:19.562Z,162.37
2023-03-22T03:09:49.751Z,76.40
2023-03-22T03:12:23.759Z,106.57
2023-03-22T03:14:56.649Z,79.80
2023-03-22T03:17:39.447Z,52.80
2023-03-22T03:20:24.788Z,144.47
2023-03-22T03:23:07.724Z,90.33
2023-03-22T03:25:43.754Z,75.97
2023-03-22T03:28:23.251Z,65.83
2023-03-22T03:31:01.618Z,118.90
2023-03-22T03:33:34.074Z,68.27
2023-03-22T03:36:11.469Z,134.87
2023-03-22T03:38:47.712Z,140.17
2023-03-22T03:41:20.535Z,148.53
2023-03-22T03:43:58.500Z,150.93
2023-03-22T03:46:29.576Z,108.60
2023-03-22T03:49:00.225Z,54.13
2023-03-22T03:51:29.945Z,57.93
2023-03-22T03:53:59.140Z,107.20
2023-03-22T03:56:28.602Z,48.00
2023-03-22T03:59:00.174Z,53.83
2023-03-22T04:01:29.574Z,88.07
2023-03-22T04:04:19.608Z,109.33
2023-03-22T04:06:53.212Z,91.50
2023-03-22T04:09:27.611Z,113.17
2023-03-22T04:12:02.042Z,74.73
2023-03-22T04:14:32.962Z,56.47
2023-03-22T04:17:08.858Z,67.27
2023-03-22T04:19:38.456Z,116.70
2023-03-22T04:22:08.071Z,100.70
2023-03-22T04:24:38.113Z,90.30
2023-03-22T04:27:08.479Z,54.20
2023-03-22T04:30:01.284Z,54.40
2023-03-22T04:32:56.799Z,64.57
2023-03-22T04:35:37.341Z,64.53
2023-03-22T04:38:08.158Z,69.03
2023-03-22T04:40:39.183Z,54.20
2023-03-22T04:43:13.867Z,62.40
2023-03-22T04:45:55.250Z,68.80
2023-03-22T04:48:29.824Z,91.50
2023-03-22T04:51:04.386Z,143.73
2023-03-22T04:53:40.298Z,59.07
2023-03-22T04:56:13.418Z,44.73
2023-03-22T04:58:45.678Z,36.17
2023-03-22T05:01:18.696Z,43.33
2023-03-22T05:03:52.619Z,40.27
2023-03-22T05:06:24.622Z,36.17
2023-03-22T05:09:08.323Z,39.17
2023-03-22T05:11:38.272Z,35.03
2023-03-22T05:14:26.044Z,38.67
2023-03-22T05:16:57.440Z,38.97
2023-03-22T05:19:26.866Z,74.03
2023-03-22T05:21:58.666Z,49.43
2023-03-22T05:24:43.947Z,45.80
2023-03-22T05:27:17.389Z,50.23
2023-03-22T05:29:47.042Z,46.57
2023-03-22T05:32:29.584Z,56.37
2023-03-22T05:35:03.902Z,80.90
2023-03-22T05:37:41.201Z,129.67
2023-03-22T05:40:11.896Z,41.90
2023-03-22T05:42:46.482Z,29.63
2023-03-22T05:45:26.531Z,28.57
2023-03-22T05:48:09.836Z,56.23
2023-03-22T05:50:39.915Z,44.90
2023-03-22T05:53:09.434Z,30.27
2023-03-22T05:56:05.114Z,29.73
2023-03-22T05:58:36.359Z,43.47
2023-03-22T06:01:12.510Z,33.00
2023-03-22T06:03:49.775Z,33.67
2023-03-22T06:06:42.294Z,28.63
2023-03-22T06:09:28.192Z,32.63
2023-03-22T06:11:57.561Z,30.97
2023-03-22T06:14:26.806Z,26.00
2023-03-22T06:17:07.211Z,28.73
2023-03-22T06:19:38.213Z,28.97
2023-03-22T06:22:09.277Z,27.70
2023-03-22T06:24:40.874Z,23.40
2023-03-22T06:27:12.547Z,25.57
2023-03-22T06:29:43.205Z,25.03
2023-03-22T06:32:12.626Z,21.27
2023-03-22T06:34:43.503Z,21.97
2023-03-22T06:37:13.914Z,22.07
2023-03-22T06:39:45.125Z,20.83
2023-03-22T06:42:14.887Z,21.83
2023-03-22T06:44:46.178Z,19.67
2023-03-22T06:47:36.486Z,20.98
2023-03-22T06:50:11.054Z,20.48
2023-03-22T06:53:06.380Z,21.48
2023-03-22T06:55:36.573Z,20.77
2023-03-22T06:58:26.024Z,19.85
2023-03-22T07:00:57.563Z,22.50
2023-03-22T07:03:29.142Z,19.48
2023-03-22T07:06:09.479Z,19.92
2023-03-22T07:08:43.243Z,20.67
2023-03-22T07:11:15.316Z,20.38
2023-03-22T07:13:48.060Z,20.65
2023-03-22T07:16:21.536Z,21.13
2023-03-22T07:18:56.256Z,19.43
2023-03-22T07:21:28.009Z,17.77
2023-03-22T07:24:03.309Z,17.43
2023-03-22T07:26:34.800Z,18.33
2023-03-22T07:29:05.773Z,21.57
2023-03-22T07:31:36.934Z,17.37
2023-03-22T07:34:08.997Z,19.17
2023-03-22T07:37:00.236Z,24.50
2023-03-22T07:39:30.452Z,19.90
2023-03-22T07:42:00.368Z,17.00
2023-03-22T07:44:44.685Z,15.67
2023-03-22T07:47:40.780Z,18.20
2023-03-22T07:50:30.594Z,16.70
2023-03-22T07:53:06.118Z,15.90
2023-03-22T07:55:35.633Z,15.43
2023-03-22T07:58:06.260Z,15.90
2023-03-22T08:00:35.823Z,14.77
2023-03-22T08:03:24.191Z,18.40
2023-03-22T08:06:16.662Z,17.63
2023-03-22T08:08:47.511Z,13.37
2023-03-22T08:11:16.925Z,12.93
2023-03-22T08:13:46.658Z,12.60
2023-03-22T08:16:17.345Z,12.50
2023-03-22T08:18:47.374Z,13.40
2023-03-22T08:21:17.206Z,13.73
2023-03-22T08:23:51.784Z,14.03
2023-03-22T08:26:30.293Z,12.53
2023-03-22T08:29:06.086Z,12.83
2023-03-22T08:31:38.642Z,13.50
2023-03-22T08:34:07.967Z,15.30
2023-03-22T08:36:37.264Z,13.20
2023-03-22T08:39:08.638Z,14.03
2023-03-22T08:41:46.741Z,14.33
2023-03-22T08:44:16.323Z,14.53
2023-03-22T08:46:46.001Z,16.43
2023-03-22T08:49:15.788Z,14.77
2023-03-22T08:51:51.902Z,15.30
2023-03-22T08:54:45.846Z,13.57
2023-03-22T08:57:53.994Z,15.97
2023-03-22T09:00:49.046Z,14.07
2023-03-22T09:03:33.855Z,13.77
2023-03-22T09:06:03.088Z,13.60
2023-03-22T09:08:37.364Z,14.07
2023-03-22T09:11:16.666Z,14.00
2023-03-22T09:13:48.409Z,14.20
2023-03-22T09:16:18.054Z,14.20
2023-03-22T09:18:48.613Z,13.90
2023-03-22T09:21:22.281Z,13.60
2023-03-22T09:23:59.683Z,15.23
2023-03-22T09:26:42.199Z,13.30
2023-03-22T09:29:11.962Z,14.00
2023-03-22T09:31:42.617Z,13.53
2023-03-22T09:34:20.877Z,13.90
2023-03-22T09:36:52.798Z,12.37
2023-03-22T09:39:26.097Z,14.33
2023-03-22T09:42:04.037Z,12.60
2023-03-22T09:44:38.214Z,14.60
2023-03-22T09:47:18.074Z,13.40
2023-03-22T09:49:53.879Z,13.43
2023-03-22T09:52:24.039Z,14.67
2023-03-22T09:54:53.554Z,14.37
2023-03-22T09:57:33.107Z,14.20
2023-03-22T10:00:15.176Z,13.53
2023-03-22T10:03:03.593Z,13.67
2023-03-22T10:05:39.806Z,12.47
2023-03-22T10:08:32.893Z,13.83
2023-03-22T10:11:02.790Z,12.57
2023-03-22T10:13:38.462Z,12.30
2023-03-22T10:16:12.090Z,12.73
2023-03-22T10:18:47.393Z,13.50
2023-03-22T10:21:18.895Z,12.80
2023-03-22T10:23:52.943Z,12.53
2023-03-22T10:26:26.296Z,12.87
2023-03-22T10:29:04.025Z,13.10
2023-03-22T10:31:35.429Z,13.97
2023-03-22T10:34:08.380Z,13.53
2023-03-22T10:36:40.268Z,12.03
2023-03-22T10:39:18.280Z,14.33
2023-03-22T10:41:48.644Z,14.53
2023-03-22T10:44:22.299Z,11.83
2023-03-22T10:46:53.877Z,12.00
2023-03-22T10:49:27.898Z,13.67
2023-03-22T10:52:01.722Z,13.87
2023-03-22T10:54:31.828Z,13.00
2023-03-22T10:57:01.108Z,12.40
2023-03-22T10:59:52.540Z,11.97
2023-03-22T11:02:25.194Z,14.00
2023-03-22T11:04:56.080Z,10.83
2023-03-22T11:07:37.477Z,11.70
2023-03-22T11:10:29.964Z,12.87
2023-03-22T11:13:14.767Z,12.27
2023-03-22T11:15:54.788Z,12.83
2023-03-22T11:18:24.333Z,11.73
2023-03-22T11:21:00.737Z,11.13
2023-03-22T11:23:34.022Z,11.67
2023-03-22T11:26:09.349Z,13.17
2023-03-22T11:28:42.528Z,11.83
2023-03-22T11:31:14.872Z,11.53
2023-03-22T11:33:57.683Z,11.40
2023-03-22T11:36:27.878Z,11.47
2023-03-22T11:39:01.885Z,12.40
2023-03-22T11:41:33.662Z,12.63
2023-03-22T11:44:06.230Z,11.37
2023-03-22T11:46:38.167Z,11.17
2023-03-22T11:49:10.597Z,11.40
2023-03-22T11:51:41.113Z,11.90
2023-03-22T11:54:16.146Z,11.40
2023-03-22T11:56:49.671Z,10.87
2023-03-22T11:59:25.384Z,10.83
2023-03-22T12:02:01.933Z,11.43
2023-03-22T12:04:35.937Z,11.67
2023-03-22T12:07:12.158Z,10.27
2023-03-22T12:09:45.311Z,10.63
2023-03-22T12:12:19.365Z,14.00
2023-03-22T12:14:53.382Z,11.63
2023-03-22T12:17:31.989Z,13.50
2023-03-22T12:20:09.151Z,11.50
2023-03-22T12:22:43.515Z,10.63
2023-03-22T12:25:17.531Z,10.47
2023-03-22T12:27:51.618Z,11.30
2023-03-22T12:30:24.493Z,11.23
2023-03-22T12:33:01.880Z,13.53
2023-03-22T12:35:35.221Z,10.90
2023-03-22T12:38:13.568Z,15.57
2023-03-22T12:40:44.419Z,10.07
2023-03-22T12:43:18.381Z,11.13
2023-03-22T12:45:53.583Z,10.90
2023-03-22T12:48:34.681Z,12.60
2023-03-22T12:51:07.858Z,11.07
2023-03-22T12:53:42.723Z,9.13
2023-03-22T12:56:14.571Z,11.13
2023-03-22T12:58:47.754Z,10.37
2023-03-22T13:01:25.387Z,8.87
2023-03-22T13:03:58.052Z,9.20
2023-03-22T13:06:36.974Z,9.10
2023-03-22T13:09:17.159Z,8.67
2023-03-22T13:11:49.071Z,9.43
2023-03-22T13:15:01.436Z,8.73
2023-03-22T13:17:51.724Z,9.60
2023-03-22T13:20:34.691Z,10.03
2023-03-22T13:23:10.820Z,9.37
2023-03-22T13:25:59.526Z,10.23
2023-03-22T13:28:30.255Z,9.77
2023-03-22T13:31:00.587Z,9.97
2023-03-22T13:33:33.065Z,10.10
2023-03-22T13:36:09.418Z,9.27
2023-03-22T13:38:42.983Z,9.90
2023-03-22T13:41:23.261Z,9.83
2023-03-22T13:43:55.556Z,9.70
2023-03-22T13:46:46.975Z,10.10
2023-03-22T13:49:44.883Z,9.23
2023-03-22T13:52:44.616Z,9.70
2023-03-22T13:55:41.970Z,9.80
2023-03-22T13:58:13.416Z,9.57
2023-03-22T14:00:50.936Z,9.80
2023-03-22T14:03:28.822Z,8.93
2023-03-22T14:06:15.196Z,9.17
2023-03-22T14:08:49.200Z,9.17
2023-03-22T14:11:25.350Z,8.33
2023-03-22T14:14:00.829Z,9.03
2023-03-22T14:16:38.313Z,9.03
2023-03-22T14:19:08.922Z,9.10
2023-03-22T14:21:41.553Z,9.23
